createdAt,value
2019-05-07T00:01:13.555Z,7.03
2019-05-07T00:03:42.393Z,7.63
2019-05-07T00:06:12.359Z,7.30
2019-05-07T00:08:44.656Z,7.20
2019-05-07T00:11:12.609Z,7.23
2019-05-07T00:13:44.151Z,7.50
2019-05-07T00:16:12.790Z,6.87
2019-05-07T00:18:42.918Z,6.83
2019-05-07T00:21:12.585Z,6.57
2019-05-07T00:23:43.280Z,6.80
2019-05-07T00:26:13.226Z,6.63
2019-05-07T00:28:43.195Z,6.80
2019-05-07T00:31:12.480Z,7.60
2019-05-07T00:33:43.317Z,7.07
2019-05-07T00:36:27.295Z,6.33
2019-05-07T00:39:03.293Z,6.00
2019-05-07T00:41:42.672Z,7.00
2019-05-07T00:44:13.568Z,7.60
2019-05-07T00:46:42.812Z,7.67
2019-05-07T00:49:12.691Z,6.30
2019-05-07T00:51:42.523Z,6.90
2019-05-07T00:54:12.278Z,8.00
2019-05-07T00:56:42.882Z,7.10
2019-05-07T00:59:13.116Z,7.00
2019-05-07T01:01:43.269Z,6.60
2019-05-07T01:04:12.130Z,7.37
2019-05-07T01:06:42.355Z,6.80
2019-05-07T01:09:12.276Z,6.87
2019-05-07T01:11:42.898Z,7.33
2019-05-07T01:14:12.368Z,7.37
2019-05-07T01:16:42.042Z,7.13
2019-05-07T01:19:12.587Z,7.17
2019-05-07T01:21:43.288Z,7.30
2019-05-07T01:24:12.435Z,7.10
2019-05-07T01:26:42.574Z,7.37
2019-05-07T01:29:12.787Z,7.20
2019-05-07T01:31:48.398Z,7.10
2019-05-07T01:34:25.252Z,7.20
2019-05-07T01:36:54.149Z,7.63
2019-05-07T01:39:23.306Z,7.50
2019-05-07T01:41:52.485Z,8.53
2019-05-07T01:44:22.099Z,6.40
2019-05-07T01:46:52.950Z,7.20
2019-05-07T01:49:23.879Z,7.60
2019-05-07T01:51:52.995Z,7.83
2019-05-07T01:54:23.796Z,7.27
2019-05-07T01:56:52.739Z,7.43
2019-05-07T01:59:22.489Z,7.93
2019-05-07T02:01:53.030Z,7.10
2019-05-07T02:04:42.828Z,7.47
2019-05-07T02:07:15.527Z,6.87
2019-05-07T02:09:48.435Z,7.17
2019-05-07T02:12:26.465Z,7.40
2019-05-07T02:14:55.316Z,7.00
2019-05-07T02:17:24.152Z,7.23
2019-05-07T02:19:53.047Z,6.97
2019-05-07T02:22:22.677Z,7.50
2019-05-07T02:24:52.369Z,7.00
2019-05-07T02:27:22.079Z,7.40
2019-05-07T02:29:52.832Z,7.20
2019-05-07T02:32:24.064Z,7.07
2019-05-07T02:34:54.509Z,6.77
2019-05-07T02:37:35.713Z,7.63
2019-05-07T02:40:14.132Z,7.07
2019-05-07T02:42:44.313Z,7.60
2019-05-07T02:45:33.242Z,7.37
2019-05-07T02:50:53.850Z,7.20
2019-05-07T02:53:53.614Z,6.93
2019-05-07T02:56:23.605Z,6.63
2019-05-07T02:58:52.880Z,7.47
2019-05-07T03:01:22.645Z,6.80
2019-05-07T03:03:52.984Z,7.13
2019-05-07T03:06:23.392Z,6.20
2019-05-07T03:08:53.435Z,7.30
2019-05-07T03:11:23.015Z,6.83
2019-05-07T03:13:53.742Z,7.10
2019-05-07T03:16:38.737Z,7.87
2019-05-07T03:18:53.384Z,8.17
2019-05-07T03:21:23.538Z,7.43
2019-05-07T03:24:03.548Z,7.60
2019-05-07T03:26:36.870Z,7.93
2019-05-07T03:29:12.851Z,7.03
2019-05-07T03:31:59.214Z,7.83
2019-05-07T03:34:47.488Z,7.80
2019-05-07T03:37:18.969Z,7.53
2019-05-07T03:39:47.752Z,7.83
2019-05-07T03:42:16.928Z,7.87
2019-05-07T03:45:13.681Z,7.13
2019-05-07T03:47:45.028Z,7.20
2019-05-07T03:50:14.932Z,7.17
2019-05-07T03:52:44.111Z,8.20
2019-05-07T03:55:14.524Z,8.00
2019-05-07T03:57:44.486Z,7.37
2019-05-07T04:00:13.676Z,7.27
2019-05-07T04:02:43.758Z,7.17
2019-05-07T04:05:14.257Z,8.23
2019-05-07T04:07:43.603Z,7.50
2019-05-07T04:10:14.897Z,7.50
2019-05-07T04:12:44.290Z,7.23
2019-05-07T04:15:15.495Z,8.00
2019-05-07T04:17:46.271Z,7.90
2019-05-07T04:20:15.530Z,7.33
2019-05-07T04:22:44.783Z,7.50
2019-05-07T04:25:38.892Z,7.97
2019-05-07T04:28:19.729Z,8.23
2019-05-07T04:30:48.565Z,7.73
2019-05-07T04:33:19.210Z,7.63
2019-05-07T04:35:53.884Z,8.63
2019-05-07T04:38:23.863Z,8.20
2019-05-07T04:40:53.776Z,8.73
2019-05-07T04:43:23.513Z,9.27
2019-05-07T04:45:53.679Z,9.33
2019-05-07T04:48:23.438Z,8.17
2019-05-07T04:50:54.716Z,9.20
2019-05-07T04:53:24.005Z,8.97
2019-05-07T04:55:53.724Z,8.90
2019-05-07T04:58:24.881Z,9.10
2019-05-07T05:00:53.919Z,9.27
2019-05-07T05:03:25.016Z,9.57
2019-05-07T05:05:53.978Z,9.80
2019-05-07T05:08:23.650Z,9.30
2019-05-07T05:10:53.684Z,9.63
2019-05-07T05:13:23.864Z,10.00
2019-05-07T05:15:53.043Z,10.03
2019-05-07T05:18:22.156Z,10.17
2019-05-07T05:21:22.660Z,9.87
2019-05-07T05:23:56.385Z,9.70
2019-05-07T05:26:25.212Z,10.47
2019-05-07T05:28:54.044Z,10.67
2019-05-07T05:31:22.858Z,10.63
2019-05-07T05:33:52.669Z,11.20
2019-05-07T05:36:22.307Z,10.27
2019-05-07T05:38:52.994Z,10.43
2019-05-07T05:41:24.388Z,11.00
2019-05-07T05:44:07.907Z,10.30
2019-05-07T05:46:36.742Z,9.93
2019-05-07T05:49:05.740Z,10.93
2019-05-07T05:51:46.389Z,10.43
2019-05-07T05:54:32.635Z,11.40
2019-05-07T05:57:22.846Z,11.10
2019-05-07T06:00:13.029Z,10.57
2019-05-07T06:03:11.885Z,10.17
2019-05-07T06:06:01.977Z,10.17
2019-05-07T06:08:39.323Z,9.53
2019-05-07T06:11:45.466Z,10.17
2019-05-07T06:14:26.402Z,9.47
2019-05-07T06:17:04.210Z,9.27
2019-05-07T06:19:43.639Z,9.80
2019-05-07T06:22:30.107Z,9.97
2019-05-07T06:25:08.158Z,9.87
2019-05-07T06:27:37.028Z,9.00
2019-05-07T06:30:06.698Z,9.30
2019-05-07T06:32:35.566Z,8.90
2019-05-07T06:35:04.551Z,9.17
2019-05-07T06:37:33.489Z,8.90
2019-05-07T06:40:20.360Z,8.93
2019-05-07T06:43:13.078Z,8.70
2019-05-07T06:45:45.966Z,8.87
2019-05-07T06:48:14.890Z,8.97
2019-05-07T06:50:56.904Z,9.47
2019-05-07T06:53:32.992Z,8.70
2019-05-07T06:56:04.143Z,8.90
2019-05-07T06:58:55.045Z,8.87
2019-05-07T07:01:44.015Z,9.80
2019-05-07T07:04:37.832Z,8.80
2019-05-07T07:07:36.572Z,8.40
2019-05-07T07:10:29.191Z,9.67
2019-05-07T07:12:58.152Z,8.07
2019-05-07T07:15:27.004Z,9.20
2019-05-07T07:17:55.824Z,9.67
2019-05-07T07:20:24.623Z,9.00
2019-05-07T07:22:54.441Z,9.47
2019-05-07T07:25:23.338Z,9.97
2019-05-07T07:27:52.266Z,10.27
2019-05-07T07:30:37.607Z,10.77
2019-05-07T07:33:07.457Z,10.37
2019-05-07T07:35:37.396Z,9.93
2019-05-07T07:38:23.832Z,10.23
2019-05-07T07:41:02.123Z,9.23
2019-05-07T07:43:32.513Z,9.23
2019-05-07T07:46:02.187Z,8.50
2019-05-07T07:48:32.065Z,9.63
2019-05-07T07:51:03.205Z,10.00
2019-05-07T07:53:35.266Z,9.33
2019-05-07T07:56:48.865Z,8.70
2019-05-07T07:59:22.134Z,9.07
2019-05-07T08:01:55.563Z,8.03
2019-05-07T08:04:24.425Z,8.83
2019-05-07T08:07:03.046Z,9.53
2019-05-07T08:09:33.154Z,8.57
2019-05-07T08:12:02.759Z,7.93
2019-05-07T08:14:32.543Z,7.80
2019-05-07T08:17:03.288Z,6.50
2019-05-07T08:19:32.961Z,7.00
2019-05-07T08:22:03.050Z,7.23
2019-05-07T08:24:33.059Z,7.30
2019-05-07T08:27:02.579Z,7.30
2019-05-07T08:29:32.834Z,7.27
2019-05-07T08:32:39.471Z,7.73
2019-05-07T08:35:18.546Z,6.90
2019-05-07T08:37:47.611Z,6.33
2019-05-07T08:40:17.556Z,6.73
2019-05-07T08:42:46.444Z,6.30
2019-05-07T08:45:33.205Z,5.70
2019-05-07T08:48:05.360Z,5.40
2019-05-07T08:50:34.328Z,5.67
2019-05-07T08:53:03.243Z,5.57
2019-05-07T08:55:32.339Z,5.27
2019-05-07T08:58:02.212Z,4.83
2019-05-07T09:00:32.581Z,4.90
2019-05-07T09:03:01.742Z,4.20
2019-05-07T09:05:32.363Z,4.97
2019-05-07T09:08:02.239Z,4.57
2019-05-07T09:10:32.484Z,4.60
2019-05-07T09:13:02.772Z,4.53
2019-05-07T09:15:32.185Z,4.20
2019-05-07T09:18:02.202Z,4.73
2019-05-07T09:20:32.141Z,4.03
2019-05-07T09:23:02.106Z,4.40
2019-05-07T09:25:32.984Z,4.47
2019-05-07T09:28:02.629Z,5.40
2019-05-07T09:30:56.825Z,4.57
2019-05-07T09:33:33.036Z,5.17
2019-05-07T09:36:03.040Z,4.83
2019-05-07T09:38:32.804Z,5.40
2019-05-07T09:41:04.388Z,5.57
2019-05-07T09:43:33.163Z,5.00
2019-05-07T09:46:02.658Z,5.03
2019-05-07T09:48:33.874Z,5.63
2019-05-07T09:51:02.854Z,6.30
2019-05-07T09:53:32.220Z,6.17
2019-05-07T09:56:02.115Z,4.87
2019-05-07T09:58:38.483Z,5.07
2019-05-07T10:01:05.158Z,4.63
2019-05-07T10:03:34.089Z,4.93
2019-05-07T10:06:03.005Z,4.53
2019-05-07T10:08:32.890Z,4.77
2019-05-07T10:11:02.824Z,4.30
2019-05-07T10:13:52.414Z,4.37
2019-05-07T10:16:28.435Z,4.00
2019-05-07T10:18:57.541Z,3.47
2019-05-07T10:21:26.471Z,3.33
2019-05-07T10:23:56.365Z,3.67
2019-05-07T10:26:25.174Z,3.30
2019-05-07T10:28:54.041Z,3.43
2019-05-07T10:31:23.211Z,3.27
2019-05-07T10:33:52.490Z,3.30
2019-05-07T10:36:27.345Z,2.67
2019-05-07T10:38:56.139Z,3.50
2019-05-07T10:41:26.220Z,4.10
2019-05-07T10:43:55.059Z,4.77
2019-05-07T10:47:02.081Z,4.33
2019-05-07T10:49:37.198Z,3.97
2019-05-07T10:52:06.129Z,3.80
2019-05-07T10:54:34.975Z,3.93
2019-05-07T10:57:03.900Z,3.97
2019-05-07T10:59:33.171Z,3.33
2019-05-07T11:02:16.578Z,3.57
2019-05-07T11:04:46.030Z,3.80
2019-05-07T11:07:15.195Z,4.00
2019-05-07T11:09:44.118Z,3.03
2019-05-07T11:12:13.341Z,3.87
2019-05-07T11:14:42.220Z,3.67
2019-05-07T11:17:29.995Z,3.40
2019-05-07T11:19:58.925Z,3.30
2019-05-07T11:22:28.329Z,4.20
2019-05-07T11:24:57.373Z,3.57
2019-05-07T11:27:27.280Z,3.57
2019-05-07T11:29:56.086Z,3.90
2019-05-07T11:32:24.913Z,4.20
2019-05-07T11:34:56.370Z,3.73
2019-05-07T11:37:25.711Z,4.53
2019-05-07T11:39:55.551Z,3.87
2019-05-07T11:42:45.127Z,4.77
2019-05-07T11:45:20.256Z,4.60
2019-05-07T11:47:54.649Z,4.47
2019-05-07T11:50:44.149Z,4.40
2019-05-07T11:53:14.834Z,3.83
2019-05-07T11:55:43.832Z,4.07
2019-05-07T11:58:12.998Z,3.77
2019-05-07T12:01:07.446Z,4.30
2019-05-07T12:03:40.289Z,4.43
2019-05-07T12:06:12.296Z,4.47
2019-05-07T12:08:45.896Z,4.40
2019-05-07T12:11:11.886Z,4.07
2019-05-07T12:13:42.742Z,3.70
2019-05-07T12:16:14.101Z,3.93
2019-05-07T12:18:43.160Z,4.13
2019-05-07T12:21:20.190Z,3.83
2019-05-07T12:23:42.869Z,4.33
2019-05-07T12:26:12.561Z,4.30
2019-05-07T12:28:45.115Z,4.30
2019-05-07T12:31:27.419Z,4.07
2019-05-07T12:34:03.216Z,3.43
2019-05-07T12:36:32.215Z,3.50
2019-05-07T12:39:02.361Z,3.30
2019-05-07T12:41:33.743Z,3.77
2019-05-07T12:44:06.326Z,3.30
2019-05-07T12:46:35.697Z,3.13
2019-05-07T12:49:04.897Z,3.37
2019-05-07T12:51:53.851Z,3.43
2019-05-07T12:54:36.719Z,3.33
2019-05-07T12:57:05.690Z,3.30
2019-05-07T12:59:34.494Z,3.90
2019-05-07T13:02:36.426Z,4.60
2019-05-07T13:04:52.155Z,3.90
2019-05-07T13:07:38.918Z,4.07
2019-05-07T13:10:08.565Z,4.10
2019-05-07T13:12:37.718Z,4.07
2019-05-07T13:15:20.548Z,3.63
2019-05-07T13:17:37.858Z,4.20
2019-05-07T13:20:06.880Z,3.87
2019-05-07T13:22:38.526Z,3.93
2019-05-07T13:25:09.523Z,3.83
2019-05-07T13:27:40.122Z,4.20
2019-05-07T13:30:09.250Z,4.57
2019-05-07T13:32:39.491Z,3.77
2019-05-07T13:35:08.363Z,4.73
2019-05-07T13:37:41.773Z,3.53
2019-05-07T13:40:20.173Z,3.70
2019-05-07T13:42:59.099Z,3.70
2019-05-07T13:45:53.032Z,3.60
2019-05-07T13:48:22.580Z,3.30
2019-05-07T13:50:51.711Z,3.60
2019-05-07T13:53:23.564Z,3.50
2019-05-07T13:55:52.506Z,3.63
2019-05-07T13:58:23.383Z,3.83
2019-05-07T14:01:20.142Z,4.00
2019-05-07T14:03:48.955Z,4.00
2019-05-07T14:06:36.846Z,3.77
2019-05-07T14:09:10.524Z,3.80
2019-05-07T14:11:41.959Z,4.63
2019-05-07T14:14:12.222Z,4.30
2019-05-07T14:16:44.693Z,4.00
2019-05-07T14:19:13.023Z,3.70
2019-05-07T14:21:42.406Z,4.03
2019-05-07T14:24:12.337Z,4.17
2019-05-07T14:26:42.967Z,4.20
2019-05-07T14:29:11.845Z,4.67
2019-05-07T14:31:42.611Z,4.93
2019-05-07T14:34:25.898Z,4.30
2019-05-07T14:37:16.553Z,4.00
2019-05-07T14:39:45.411Z,4.10
2019-05-07T14:42:22.062Z,4.00
2019-05-07T14:44:52.761Z,3.83
2019-05-07T14:47:22.420Z,3.80
2019-05-07T14:49:53.021Z,4.30
2019-05-07T14:52:31.958Z,3.97
2019-05-07T14:54:52.653Z,4.10
2019-05-07T14:57:22.186Z,4.20
2019-05-07T14:59:52.378Z,4.20
2019-05-07T15:02:23.449Z,4.07
2019-05-07T15:04:52.603Z,4.53
2019-05-07T15:07:22.642Z,4.60
2019-05-07T15:09:51.952Z,4.50
2019-05-07T15:12:23.086Z,3.93
2019-05-07T15:14:52.753Z,4.50
2019-05-07T15:17:28.871Z,5.27
2019-05-07T15:19:57.730Z,9.03
2019-05-07T15:22:47.118Z,4.90
2019-05-07T15:25:14.155Z,6.20
2019-05-07T15:27:43.523Z,4.97
2019-05-07T15:30:13.426Z,5.10
2019-05-07T15:32:42.844Z,4.67
2019-05-07T15:35:12.595Z,4.80
2019-05-07T15:37:42.731Z,4.40
2019-05-07T15:40:11.880Z,4.40
2019-05-07T15:42:42.186Z,3.93
2019-05-07T15:45:12.554Z,4.43
2019-05-07T15:47:45.096Z,4.00
2019-05-07T15:50:14.080Z,4.23
2019-05-07T15:52:58.240Z,4.60
2019-05-07T15:55:19.178Z,4.73
2019-05-07T15:57:48.451Z,4.40
2019-05-07T16:00:21.784Z,4.07
2019-05-07T16:02:54.340Z,4.60
2019-05-07T16:05:23.159Z,4.20
2019-05-07T16:07:52.658Z,4.47
2019-05-07T16:10:23.344Z,3.73
2019-05-07T16:12:53.226Z,4.57
2019-05-07T16:15:22.610Z,4.40
2019-05-07T16:17:59.020Z,4.40
2019-05-07T16:20:27.951Z,4.43
2019-05-07T16:23:13.561Z,4.20
2019-05-07T16:25:32.851Z,4.67
2019-05-07T16:28:04.828Z,4.90
2019-05-07T16:30:32.854Z,4.90
2019-05-07T16:33:02.312Z,5.17
2019-05-07T16:35:32.016Z,4.50
2019-05-07T16:38:01.201Z,4.30
2019-05-07T16:40:34.669Z,3.50
2019-05-07T16:43:04.270Z,4.17
2019-05-07T16:45:33.226Z,4.07
2019-05-07T16:48:03.220Z,3.93
2019-05-07T16:50:33.574Z,4.50
2019-05-07T16:53:02.990Z,4.47
2019-05-07T16:55:36.821Z,4.60
2019-05-07T16:58:14.549Z,3.90
2019-05-07T17:00:46.266Z,4.13
2019-05-07T17:03:23.133Z,3.50
2019-05-07T17:05:52.401Z,3.90
2019-05-07T17:08:46.170Z,4.30
2019-05-07T17:11:15.030Z,4.10
2019-05-07T17:13:44.024Z,4.50
2019-05-07T17:16:12.936Z,4.13
2019-05-07T17:18:41.877Z,4.33
2019-05-07T17:21:12.334Z,4.13
2019-05-07T17:23:44.717Z,4.53
2019-05-07T17:26:11.900Z,4.30
2019-05-07T17:28:42.529Z,4.30
2019-05-07T17:31:12.371Z,4.73
2019-05-07T17:33:42.470Z,4.93
2019-05-07T17:36:12.068Z,5.47
2019-05-07T17:38:42.845Z,5.37
2019-05-07T17:41:19.985Z,5.43
2019-05-07T17:43:42.431Z,4.77
2019-05-07T17:46:12.279Z,5.10
2019-05-07T17:48:42.872Z,5.40
2019-05-07T17:51:32.337Z,5.13
2019-05-07T17:54:01.162Z,4.53
2019-05-07T17:56:31.865Z,5.20
2019-05-07T17:59:02.684Z,4.00
2019-05-07T18:01:50.019Z,5.10
2019-05-07T18:04:17.712Z,5.50
2019-05-07T18:06:46.712Z,5.07
2019-05-07T18:09:15.696Z,5.47
2019-05-07T18:11:44.581Z,5.47
2019-05-07T18:14:14.055Z,5.33
2019-05-07T18:16:56.282Z,4.93
2019-05-07T18:19:25.887Z,5.73
2019-05-07T18:22:14.465Z,4.90
2019-05-07T18:24:43.433Z,5.37
2019-05-07T18:27:24.130Z,5.77
2019-05-07T18:30:03.863Z,4.77
2019-05-07T18:32:37.435Z,5.37
2019-05-07T18:35:06.580Z,4.40
2019-05-07T18:37:52.465Z,5.10
2019-05-07T18:40:22.123Z,5.23
2019-05-07T18:42:52.503Z,5.07
2019-05-07T18:45:23.507Z,5.27
2019-05-07T18:47:52.413Z,5.30
2019-05-07T18:50:27.527Z,5.50
2019-05-07T18:52:56.508Z,5.33
2019-05-07T18:55:25.391Z,5.10
2019-05-07T18:57:54.323Z,5.07
2019-05-07T19:00:31.613Z,5.03
2019-05-07T19:02:59.903Z,4.77
2019-05-07T19:05:28.811Z,5.43
2019-05-07T19:08:05.445Z,5.63
2019-05-07T19:10:36.024Z,5.50
2019-05-07T19:13:05.242Z,4.73
2019-05-07T19:15:34.355Z,5.57
2019-05-07T19:18:03.374Z,5.87
2019-05-07T19:20:33.386Z,5.63
2019-05-07T19:23:08.285Z,6.63
2019-05-07T19:25:43.366Z,6.37
2019-05-07T19:28:14.943Z,7.63
2019-05-07T19:33:32.849Z,8.00
2019-05-07T19:36:02.104Z,9.83
2019-05-07T19:38:32.326Z,8.37
2019-05-07T19:41:02.159Z,9.13
2019-05-07T19:43:32.882Z,8.80
2019-05-07T19:46:02.845Z,7.97
2019-05-07T19:48:32.381Z,8.57
2019-05-07T19:51:02.950Z,8.20
2019-05-07T19:53:35.844Z,8.67
2019-05-07T19:56:12.968Z,7.73
2019-05-07T19:58:43.010Z,7.73
2019-05-07T20:01:13.721Z,7.93
2019-05-07T20:03:52.868Z,7.87
2019-05-07T20:06:23.440Z,8.37
2019-05-07T20:08:53.716Z,7.60
2019-05-07T20:11:36.969Z,8.57
2019-05-07T20:14:06.030Z,9.30
2019-05-07T20:16:37.007Z,8.50
2019-05-07T20:19:05.988Z,8.80
2019-05-07T20:21:35.037Z,9.40
2019-05-07T20:24:03.952Z,8.40
2019-05-07T20:29:12.171Z,8.73
2019-05-07T20:31:42.339Z,8.20
2019-05-07T20:34:13.242Z,8.57
2019-05-07T20:36:42.799Z,8.77
2019-05-07T20:39:13.092Z,8.70
2019-05-07T20:41:43.106Z,8.93
2019-05-07T20:44:12.980Z,8.97
2019-05-07T20:46:42.277Z,8.10
2019-05-07T20:49:13.129Z,8.70
2019-05-07T20:51:42.030Z,8.57
2019-05-07T20:54:27.716Z,7.33
2019-05-07T20:57:05.790Z,7.47
2019-05-07T20:59:34.693Z,7.80
2019-05-07T21:02:03.898Z,9.47
2019-05-07T21:04:33.143Z,9.03
2019-05-07T21:07:02.305Z,8.40
2019-05-07T21:09:33.283Z,8.67
2019-05-07T21:12:02.133Z,7.90
2019-05-07T21:14:32.445Z,7.87
2019-05-07T21:17:01.453Z,7.80
2019-05-07T21:19:33.109Z,7.20
2019-05-07T21:22:03.134Z,7.60
2019-05-07T21:24:33.767Z,8.77
2019-05-07T21:27:02.766Z,7.43
2019-05-07T21:29:32.711Z,8.13
2019-05-07T21:32:03.319Z,7.10
2019-05-07T21:34:32.630Z,7.17
2019-05-07T21:37:03.308Z,7.07
2019-05-07T21:39:33.012Z,7.93
2019-05-07T21:42:02.098Z,8.07
2019-05-07T21:44:32.615Z,7.47
2019-05-07T21:47:03.883Z,8.13
2019-05-07T21:49:32.846Z,7.60
2019-05-07T21:52:02.067Z,7.93
2019-05-07T21:54:48.718Z,7.93
2019-05-07T21:57:34.878Z,8.33
2019-05-07T22:00:23.153Z,8.90
2019-05-07T22:02:52.681Z,8.07
2019-05-07T22:05:22.417Z,7.83
2019-05-07T22:07:54.176Z,7.87
2019-05-07T22:10:22.359Z,7.87
2019-05-07T22:12:52.002Z,7.83
2019-05-07T22:15:22.432Z,8.40
2019-05-07T22:17:52.074Z,8.07
2019-05-07T22:20:20.988Z,8.63
2019-05-07T22:22:52.033Z,8.43
2019-05-07T22:25:22.270Z,8.17
2019-05-07T22:27:52.998Z,7.90
2019-05-07T22:30:28.029Z,9.00
2019-05-07T22:33:02.501Z,7.80
2019-05-07T22:35:35.226Z,7.93
2019-05-07T22:38:04.390Z,8.50
2019-05-07T22:40:33.170Z,7.67
2019-05-07T22:43:02.208Z,8.30
2019-05-07T22:45:32.222Z,8.30
2019-05-07T22:48:02.793Z,7.80
2019-05-07T22:50:33.154Z,8.03
2019-05-07T22:53:02.249Z,8.03
2019-05-07T22:55:32.663Z,7.97
2019-05-07T22:58:09.446Z,6.97
2019-05-07T23:00:42.716Z,7.80
2019-05-07T23:03:12.401Z,7.40
2019-05-07T23:05:42.221Z,7.80
2019-05-07T23:08:12.797Z,8.07
2019-05-07T23:10:42.117Z,7.90
2019-05-07T23:13:12.982Z,8.33
2019-05-07T23:15:42.948Z,8.90
2019-05-07T23:18:13.054Z,8.23
2019-05-07T23:20:42.700Z,8.43
2019-05-07T23:23:14.099Z,7.80
2019-05-07T23:25:43.132Z,8.63
2019-05-07T23:28:12.635Z,8.40
2019-05-07T23:30:42.155Z,7.27
2019-05-07T23:33:12.592Z,7.33
2019-05-07T23:35:42.141Z,7.50
2019-05-07T23:38:12.187Z,7.83
2019-05-07T23:41:02.144Z,7.80
2019-05-07T23:43:31.018Z,7.90
2019-05-07T23:46:02.109Z,7.83
2019-05-07T23:48:32.126Z,7.57
2019-05-07T23:51:02.060Z,7.67
2019-05-07T23:53:31.714Z,8.40
2019-05-07T23:56:02.789Z,7.80
2019-05-07T23:58:32.663Z,8.37
